CCGS Samuel Risley — CG2960 — position and weather

sailwx.info

Track history (hours):
 
Tides and Currents Weather Stations Pressure Air Temp Water Temp Dewpoint Dewpoint Depression Visibility Wind Speed Wind Dir Waves Ship Positions

CCGS Samuel Risley (Canada)

Medium Navaids Tender - Light Icebreaker

Last reported at 2018-Feb-20 14:00 UTC. Time now 2018-Feb-20 15:20 UTC.
Position N 42°30' W 082°42'.

Length 69.73 m; beam 13.7 m; draft 5.2 m.

Type: SAR. MMSI: 316001890.

Wind from 150 at 11 knots

Barometer 1015.9 mb
Air temperature 9.4 ° C
Dewpoint 9.5 ° C

Date/timePositionNaut miles runAvg speedWind from/ knotsBaromVisibWave heightAir tempDewpointWater temp
2018-Feb-20 14:00N 42°30' W 082°42'1110.7 150 / 111015.9 9.4 9.5
2018-Feb-20 13:00N 42°36' W 082°30'0 0.0 210 / 51016.2 10.210.3
2018-Feb-20 12:00N 42°36' W 082°30'0 0.0 210 / 61015.8 11.211.4
2018-Feb-20 11:00N 42°36' W 082°30'0 0.0 190 / 61015.2 11.411.5
2018-Feb-20 10:00N 42°36' W 082°30'0 0.0 190 / 61015.5 11.411.5
2018-Feb-20 09:00N 42°36' W 082°30'0 0.0 220 / 101015.8 11.912.0
2018-Feb-20 08:00N 42°36' W 082°30'0 0.0 220 / 101015.5 12.512.7
2018-Feb-20 07:00N 42°36' W 082°30'0 0.0 210 / 101014.7 11.411.6
2018-Feb-20 06:00N 42°36' W 082°30'0 0.0 200 / 91014.9 10.710.8
2018-Feb-20 05:00N 42°36' W 082°30'0 0.0 200 / 81015.3 10.010.1
2018-Feb-20 04:00N 42°36' W 082°30'0 0.0 210 / 81015.0 10.710.7
2018-Feb-20 03:00N 42°36' W 082°30'0 0.0 250 / 71014.6 11.111.2
2018-Feb-20 02:00N 42°36' W 082°30'0 0.0 210 / 91014.9 11.111.3
2018-Feb-20 01:00N 42°36' W 082°30'0 0.0 210 / 101014.4 10.811.0
2018-Feb-20 00:00N 42°36' W 082°30'0 0.0 210 / 111014.2 10.911.0
2018-Feb-19 23:00N 42°36' W 082°30'0 0.0 210 / 71013.8 9.0 9.1
2018-Feb-19 22:00N 42°36' W 082°30'0 0.0 210 / 91013.5 8.6 8.8
2018-Feb-19 21:00N 42°36' W 082°30'7 7.5 160 / 81013.5 5.9 5.9
2018-Feb-19 20:00N 42°30' W 082°36'4 4.4 120 / 91014.4 4.7 4.8
2018-Feb-19 19:00N 42°30' W 082°42'7 7.5 120 / 81015.9 3.6 3.6
2018-Feb-19 18:00N 42°36' W 082°36'4 4.4 160 / 71016.6 3.7 3.7
2018-Feb-19 17:00N 42°36' W 082°30'7 7.5 220 / 51017.5 3.4 3.4
2018-Feb-19 16:00N 42°30' W 082°36'4 4.4 190 / 41017.0 1.3 1.2
2018-Feb-19 15:00N 42°30' W 082°42'1110.7 170 / 81016.7 1.5 1.4
2018-Feb-19 14:00N 42°24' W 082°54'7 7.5 200 / 91017.5 1.9 1.9
2018-Feb-19 13:00N 42°18' W 083°00'0 0.0 200 / 41016.9 2.2 1.1
2018-Feb-19 12:00N 42°18' W 083°00'0 0.0 210 / 41016.0 2.0 0.5
2018-Feb-19 11:00N 42°18' W 083°00'0 0.0 180 / 41017.6 1.8-0.7
2018-Feb-19 10:00N 42°18' W 083°00'0 0.0 180 / 21018.0 1.5-1.1
2018-Feb-19 09:00N 42°18' W 083°00'0 0.0 160 / 31017.3 1.0-1.5
2018-Feb-19 08:00N 42°18' W 083°00'0 0.0 160 / 31018.3 1.0-1.7
2018-Feb-19 07:00N 42°18' W 083°00'0 0.0 190 / 51019.3 1.2-1.7
2018-Feb-19 06:00N 42°18' W 083°00'0 0.0 190 / 61019.4 1.2-1.9
2018-Feb-19 05:00N 42°18' W 083°00'0 0.0 160 / 61020.0 0.8-1.9
2018-Feb-19 04:00N 42°18' W 083°00'0 0.0 150 / 71021.7 0.9-1.9
2018-Feb-19 03:00N 42°18' W 083°00'0 0.0 120 / 51023.0 -0.0-1.7
2018-Feb-19 02:00N 42°18' W 083°00'0 0.0 130 / 61023.1 -0.4-1.9
2018-Feb-19 01:00N 42°18' W 083°00'0 0.0 130 / 51024.3 0.3-2.1
2018-Feb-19 00:00N 42°18' W 083°00'0 0.0 180 / 21025.0 0.7-2.0
2018-Feb-18 23:00N 42°18' W 083°00'0 0.0 180 / 61025.3 1.1-2.3
2018-Feb-18 22:00N 42°18' W 083°00'7 7.5 200 / 81026.2 1.3-2.7
2018-Feb-18 21:00N 42°24' W 082°54'1110.7 180 / 181026.8 0.3-3.1
2018-Feb-18 20:00N 42°30' W 082°42'4 4.4 190 / 161026.9 -0.8-3.3
2018-Feb-18 19:00N 42°30' W 082°36'7 7.5 200 / 121026.9 0.6-3.8
2018-Feb-18 18:00N 42°36' W 082°30'7 7.5 190 / 101027.3 1.1-4.3
2018-Feb-18 17:00N 42°30' W 082°36'9 8.8 180 / 71027.5 -1.0-3.7
2018-Feb-18 16:00N 42°30' W 082°48'9 8.8 160 / 101028.3 -1.7-4.6
2018-Feb-18 15:00N 42°30' W 082°36'1110.7 250 / 61028.2 -0.6-5.1
2018-Feb-18 14:00N 42°24' W 082°48'1110.7 270 / 51027.3 -0.4-5.0
2018-Feb-18 13:00N 42°18' W 083°00'0 0.0 280 / 41026.4 1.0-4.4
2018-Feb-18 12:00N 42°18' W 083°00'0 0.0 300 / 51026.2 0.4-4.5
2018-Feb-18 11:00N 42°18' W 083°00'0 0.0 260 / 61025.4 1.0-3.0
2018-Feb-18 10:00N 42°18' W 083°00'0 0.0 280 / 71023.6 0.1-3.0
2018-Feb-18 09:00N 42°18' W 083°00'0 0.0 260 / 61021.8 0.5-1.7
2018-Feb-18 08:00N 42°18' W 083°00'0 0.0 250 / 91020.6 0.4-1.2
2018-Feb-18 07:00N 42°18' W 083°00'0 0.0 250 / 81019.6 -0.2-1.3
2018-Feb-18 06:00N 42°18' W 083°00'0 0.0 250 / 61018.2 1.3-1.1
2018-Feb-18 05:00N 42°18' W 083°00'0 0.0 260 / 51017.2 0.6-1.1
2018-Feb-18 04:00N 42°18' W 083°00'0 0.0 260 / 71017.2 0.7-0.3
2018-Feb-18 03:00N 42°18' W 083°00'0 0.0 240 / 61016.4 1.0-1.3
2018-Feb-18 02:00N 42°18' W 083°00'0 0.0 220 / 51015.9 -0.1-1.9
2018-Feb-18 01:00N 42°18' W 083°00'0 0.0 210 / 61016.3 -0.1-2.2
2018-Feb-18 00:00N 42°18' W 083°00'1110.7 170 / 81016.1 -0.6-3.1
2018-Feb-17 23:00N 42°24' W 082°48'7 7.5 180 / 121016.8 -0.8-3.2
2018-Feb-17 22:00N 42°30' W 082°42'1110.7 190 / 71016.2 -1.1-3.3
2018-Feb-17 21:00N 42°36' W 082°30'1212.0 200 / 101016.3 -0.9-4.9
2018-Feb-17 20:00N 42°48' W 082°30'6 6.0 180 / 121016.0 -0.8-5.1
2018-Feb-17 19:00N 42°54' W 082°30'7 7.4 190 / 151018.0 -1.0-5.8
2018-Feb-17 18:00N 43°00' W 082°24'6 6.0 200 / 141019.0 -0.4-6.1
2018-Feb-17 17:00N 42°54' W 082°24'0 0.0 210 / 11020.2 -1.0-6.8
2018-Feb-17 16:00N 42°54' W 082°24'0 0.0 190 / 11021.6 -1.4-6.9
2018-Feb-17 15:00N 42°54' W 082°24'0 0.0 170 / 61022.8 -1.9-6.8
2018-Feb-17 14:00N 42°54' W 082°24'0 0.0 170 / 31023.7 -2.5-6.3
2018-Feb-17 13:00N 42°54' W 082°24'0 0.0 160 / 31023.8 -3.6-6.3
2018-Feb-17 12:00N 42°54' W 082°24'0 0.0 160 / 31024.0 -4.5-6.8
2018-Feb-17 11:00N 42°54' W 082°24'0 0.0 170 / 21024.7 -4.6-6.8
2018-Feb-17 10:00N 42°54' W 082°24'0 0.0 160 / 21024.9 -4.1-7.4
2018-Feb-17 09:00N 42°54' W 082°24'0 0.0 210 / 11025.0 -4.7-8.6
2018-Feb-17 08:00N 42°54' W 082°24'0 0.0 210 / 11025.2 -4.8-9.2
2018-Feb-17 07:00N 42°54' W 082°24'0 0.0 220 / 31025.9 -4.5-9.1
2018-Feb-17 06:00N 42°54' W 082°24'0 0.0 210 / 31025.3 -3.5-8.6
2018-Feb-17 05:00N 42°54' W 082°24'0 0.0 210 / 21025.4 -3.1-9.5
2018-Feb-17 04:00N 42°54' W 082°24'0 0.0 210 / 21025.7 -3.1-9.8
2018-Feb-17 03:00N 42°54' W 082°24'0 0.0 210 / 21025.3 -2.9-9.7
2018-Feb-17 02:00N 42°54' W 082°24'0 0.0 210 / 21025.3 -2.5-9.0
2018-Feb-17 01:00N 42°54' W 082°24'0 0.0 260 / 21025.3 -1.8-8.7
2018-Feb-17 00:00N 42°54' W 082°24'0 0.0 260 / 41024.7 -1.4-8.9
2018-Feb-16 23:00N 42°54' W 082°24'0 0.0 300 / 61023.8 -1.0-8.9
2018-Feb-16 22:00N 42°54' W 082°24'0 0.0 330 / 51023.2 -1.0-9.1
2018-Feb-16 21:00N 42°54' W 082°24'0 0.0 300 / 111022.5 -1.5-9.2
2018-Feb-16 20:00N 42°54' W 082°24'0 0.0 320 / 71021.6 -2.2-8.2
2018-Feb-16 19:00N 42°54' W 082°24'0 0.0 350 / 71020.4 -1.9-7.2
2018-Feb-16 18:00N 42°54' W 082°24'0 0.0 340 / 61019.7 -1.9-5.3
2018-Feb-16 17:00N 42°54' W 082°24'0 0.0 340 / 91019.0 -1.4-7.1
2018-Feb-16 16:00N 42°54' W 082°24'0 0.0 320 / 131017.7 -1.6-6.4
2018-Feb-16 15:00N 42°54' W 082°24'0 0.0 320 / 91016.5 -1.7-4.4
2018-Feb-16 14:00N 42°54' W 082°24'0 0.0 330 / 101015.5 -1.6-4.2
2018-Feb-16 13:00N 42°54' W 082°24'0 0.0 330 / 101014.0 -1.1-3.2
2018-Feb-16 12:00N 42°54' W 082°24'0 0.0 340 / 81012.3 -0.9-2.6
2018-Feb-16 11:00N 42°54' W 082°24'0 0.0 350 / 71011.7 -0.7-2.2
2018-Feb-16 10:00N 42°54' W 082°24'0 0.0 020 / 41010.7 -0.3-1.9
2018-Feb-16 09:00N 42°54' W 082°24'0 0.0 020 / 41009.7 0.1-0.7
2018-Feb-16 08:00N 42°54' W 082°24'0 0.0 360 / 41008.9 0.6 0.4
2018-Feb-16 07:00N 42°54' W 082°24'0 0.0 010 / 21008.3 0.9 0.8
2018-Feb-16 06:00N 42°54' W 082°24'0 0.0 020 / 31008.0 1.3 0.9
2018-Feb-16 05:00N 42°54' W 082°24'0 0.0 350 / 41007.7 1.9 0.7
2018-Feb-16 04:00N 42°54' W 082°24'0 0.0 010 / 41007.8 2.7 0.9
2018-Feb-16 03:00N 42°54' W 082°24'0 0.0 340 / 91006.2 5.8 4.1
2018-Feb-16 02:00N 42°54' W 082°24'0 0.0 300 / 61006.1 6.2 6.2
2018-Feb-16 01:00N 42°54' W 082°24'0 0.0 270 / 21005.4 6.2 6.3
2018-Feb-16 00:00N 42°54' W 082°24'4 4.4 320 / 11004.8 6.2 6.3
2018-Feb-15 23:00N 42°54' W 082°30'1212.0 280 / 41004.6 7.0 7.0
2018-Feb-15 22:00N 42°42' W 082°30'7 7.4 190 / 8 5.9 6.0
2018-Feb-15 21:00N 42°36' W 082°36'7 7.5 200 / 51005.1 5.5 5.5
2018-Feb-15 20:00N 42°30' W 082°42'1110.7 200 / 81005.5 3.9 4.0
2018-Feb-15 19:00N 42°24' W 082°54'7 7.5 230 / 101006.4 7.9 8.0
2018-Feb-15 18:00N 42°18' W 083°00'1110.7 240 / 121007.9 7.8 7.9
2018-Feb-15 17:00N 42°24' W 082°48'1110.7 190 / 91007.3 3.7 3.7
2018-Feb-15 16:00N 42°30' W 082°36'1312.8 210 / 8987.5 3.6 3.6
2018-Feb-15 15:00N 42°42' W 082°30'6 6.0 220 / 11 6.7 6.6
2018-Feb-15 14:00N 42°48' W 082°30'1212.0 220 / 8 5.9 6.0
2018-Feb-15 13:00N 42°36' W 082°30'6 6.0 220 / 121008.1 4.6 4.7
2018-Feb-15 12:00N 42°42' W 082°30'6 6.0 210 / 91008.3 5.9 6.0
2018-Feb-15 11:00N 42°36' W 082°30'0 0.0 220 / 111008.4 5.3 5.3
2018-Feb-15 10:00N 42°36' W 082°30'0 0.0 210 / 91008.8 4.1 4.1
2018-Feb-15 09:00N 42°36' W 082°30'0 0.0 230 / 91009.4 3.8 3.8
2018-Feb-15 08:00N 42°36' W 082°30'0 0.0 230 / 81009.8 3.7 3.7
2018-Feb-15 07:00N 42°36' W 082°30'0 0.0 210 / 81010.2 3.4 3.4
2018-Feb-15 06:00N 42°36' W 082°30'0 0.0 210 / 81011.6 3.0 3.0
2018-Feb-15 05:00N 42°36' W 082°30'0 0.0 200 / 71011.7 3.4 3.4
2018-Feb-15 04:00N 42°36' W 082°30'0 0.0 190 / 71012.6 3.5 3.5
2018-Feb-15 03:00N 42°36' W 082°30'0 0.0 200 / 71013.5 3.4 3.3
2018-Feb-15 02:00N 42°36' W 082°30'0 0.0 210 / 81014.3 2.8 2.7
2018-Feb-15 01:00N 42°36' W 082°30'7 7.5 190 / 91015.2 2.7 1.8
2018-Feb-15 00:00N 42°30' W 082°36'0 0.0 190 / 101015.8 1.8 0.6
2018-Feb-14 23:00N 42°30' W 082°36'1110.7 200 / 131016.2 1.9 0.3
2018-Feb-14 22:00N 42°24' W 082°48'0 0.0 200 / 151016.6 3.6 0.7
2018-Feb-14 21:00N 42°24' W 082°48'7 7.5 180 / 151017.3 2.5 0.1
2018-Feb-14 20:00N 42°30' W 082°42'1110.7 170 / 161017.8 2.2 0.2
2018-Feb-14 19:00N 42°36' W 082°30'0 0.0 220 / 141019.3 4.6 0.6
2018-Feb-14 18:00N 42°36' W 082°30'0 0.0 210 / 111020.7 3.0-0.4
2018-Feb-14 17:00N 42°36' W 082°30'0 0.0 210 / 141021.5 2.8-0.4
2018-Feb-14 16:00N 42°36' W 082°30'0 0.0 220 / 131022.4 0.4-1.3
2018-Feb-14 15:00N 42°36' W 082°30'0 0.0 210 / 141022.7 -0.4-2.1
2018-Feb-14 14:00N 42°36' W 082°30'0 0.0 210 / 91023.0 -3.2-4.2
2018-Feb-14 13:00N 42°36' W 082°30'0 0.0 220 / 71023.0 -3.5-4.4
2018-Feb-14 12:00N 42°36' W 082°30'0 0.0 220 / 81023.1 -3.5-4.3
2018-Feb-14 11:00N 42°36' W 082°30'0 0.0 220 / 101023.0 -3.9-4.5
2018-Feb-14 10:00N 42°36' W 082°30'0 0.0 200 / 71023.2 -5.4-5.9
2018-Feb-14 09:00N 42°36' W 082°30'0 0.0 220 / 61023.8 -5.5-6.1
2018-Feb-14 08:00N 42°36' W 082°30'0 0.0 200 / 71024.2 -5.1-6.0
2018-Feb-14 07:00N 42°36' W 082°30'0 0.0 190 / 61024.9 -4.8-6.0
2018-Feb-14 06:00N 42°36' W 082°30'0 0.0 180 / 41025.9 -5.7-6.7
2018-Feb-14 05:00N 42°36' W 082°30'0 0.0 210 / 41026.3 -5.2-6.6
2018-Feb-14 04:00N 42°36' W 082°30'0 0.0 180 / 51027.6 -4.5-7.0
2018-Feb-14 03:00N 42°36' W 082°30'0 0.0 1028.9 -4.8-7.7
2018-Feb-14 02:00N 42°36' W 082°30'0 0.0 160 / 11029.5 -4.7-7.8
2018-Feb-14 01:00N 42°36' W 082°30'0 0.0 130 / 31030.2 -5.1-8.3
2018-Feb-14 00:00N 42°36' W 082°30'0 0.0 120 / 41031.5 -5.1-8.6
2018-Feb-13 23:00N 42°36' W 082°30'0 0.0 140 / 61032.7 -5.0-9.1
2018-Feb-13 22:00N 42°36' W 082°30'0 0.0 100 / 51033.8 -4.9-9.6
2018-Feb-13 21:00N 42°36' W 082°30'0 0.0 100 / 71034.5 -4.9-10.4
2018-Feb-13 20:00N 42°36' W 082°30'0 0.0 090 / 61035.1 -5.0-11.5
2018-Feb-13 19:00N 42°36' W 082°30'1110.7 120 / 51036.3 -5.1-11.4
2018-Feb-13 18:00N 42°30' W 082°42'7 7.5 140 / 51038.9 -6.8-10.0
2018-Feb-13 17:00N 42°24' W 082°48'0 0.0 010 / 41041.0 -9.0-11.5
2018-Feb-13 16:00N 42°24' W 082°48'1110.7 070 / 21041.6 -10.6-13.0
2018-Feb-13 15:00N 42°30' W 082°36'1312.8 100 / 101042.4 -7.8-12.3
2018-Feb-13 14:00N 42°42' W 082°30'6 6.0 150 / 21043.3 -12.6-15.3
2018-Feb-13 13:00N 42°36' W 082°30'0 0.0 090 / 11043.5 -12.4-15.1
2018-Feb-13 12:00N 42°36' W 082°30'0 0.0 100 / 21043.4 -13.0-15.5
2018-Feb-13 11:00N 42°36' W 082°30'0 0.0 040 / 31043.3 -13.6-15.4
2018-Feb-13 10:00N 42°36' W 082°30'0 0.0 070 / 21043.6 -13.1-15.3
2018-Feb-13 09:00N 42°36' W 082°30'0 0.0 090 / 31043.8 -12.6-15.1
2018-Feb-13 08:00N 42°36' W 082°30'0 0.0 090 / 31044.5 -11.8-14.3
2018-Feb-13 07:00N 42°36' W 082°30'0 0.0 100 / 21044.1 -11.4-14.3
2018-Feb-13 06:00N 42°36' W 082°30'0 0.0 070 / 21043.9 -11.1-13.9
2018-Feb-13 05:00N 42°36' W 082°30'0 0.0 080 / 41044.2 -10.1-13.7
2018-Feb-13 04:00N 42°36' W 082°30'0 0.0 090 / 31044.3 -9.8-13.5
2018-Feb-13 03:00N 42°36' W 082°30'0 0.0 100 / 21043.7 -9.4-13.1
2018-Feb-13 02:00N 42°36' W 082°30'4 4.4 090 / 31042.7 -8.8-12.9
2018-Feb-13 01:00N 42°36' W 082°36'7 7.5 070 / 51042.5 -7.7-12.5
2018-Feb-13 00:00N 42°30' W 082°42'1514.9 100 / 61042.3 -7.6-12.3
2018-Feb-12 23:00N 42°42' W 082°30'6 6.0 110 / 21041.2 -6.3-12.2
2018-Feb-12 22:00N 42°36' W 082°30'0 0.0 100 / 71040.5 -5.4-12.0
2018-Feb-12 21:00N 42°36' W 082°30'0 0.0 110 / 71039.8 -5.3-11.7
2018-Feb-12 19:00N 42°36' W 082°30'6 6.0 040 / 21039.0 -4.9-11.6
2018-Feb-12 18:00N 42°42' W 082°30'1212.0 050 / 2 -5.5-12.0
2018-Feb-12 17:00N 42°54' W 082°30'7 7.4 020 / 51038.7 -6.1-12.4
2018-Feb-12 16:00N 43°00' W 082°24'6 6.0 350 / 91038.1 -6.7-12.5
2018-Feb-12 15:00N 43°06' W 082°24'1312.8 310 / 61036.8 -9.3-12.3
2018-Feb-12 14:00N 43°18' W 082°18'1212.0 300 / 91035.7 -10.9-13.1
2018-Feb-12 13:00N 43°30' W 082°18'4 4.4 290 / 101033.9 -11.1-13.2
2018-Feb-12 12:00N 43°30' W 082°12'0 0.0 290 / 101032.2 -10.8-13.1
2018-Feb-12 11:00N 43°30' W 082°12'0 0.0 290 / 131030.5 -9.8-12.5
2018-Feb-12 10:00N 43°30' W 082°12'0 0.0 280 / 131028.8 -9.5-11.9
2018-Feb-12 09:00N 43°30' W 082°12'0 0.0 270 / 131027.5 -8.8-11.5
2018-Feb-12 08:00N 43°30' W 082°12'0 0.0 250 / 81026.8 -8.8-11.4
2018-Feb-12 07:00N 43°30' W 082°12'0 0.0 230 / 91025.4 -8.1-11.2
2018-Feb-12 06:00N 43°30' W 082°12'6 6.0 260 / 121024.1 -7.8-10.4
2018-Feb-12 05:00N 43°36' W 082°12'1414.3 270 / 91022.3 -7.5-9.8
2018-Feb-12 04:00N 43°42' W 081°54'0 0.0 240 / 111020.7 -6.9-8.5
2018-Feb-12 03:00N 43°42' W 081°54'1312.8 220 / 101019.6 -6.2-7.2
2018-Feb-12 02:00N 43°30' W 082°00'1110.6 210 / 121018.4 -5.4-6.4
2018-Feb-12 01:00N 43°24' W 082°12'1312.8 220 / 111017.1 -4.3-5.5
2018-Feb-12 00:00N 43°12' W 082°18'2010.0 210 / 111016.0 -3.7-5.2
2018-Feb-11 22:00N 42°54' W 082°30'24 8.1 270 / 81012.0 -3.7-5.1
2018-Feb-11 19:00N 42°30' W 082°36'1110.7 270 / 81008.7 -3.3-3.8
2018-Feb-11 18:00N 42°24' W 082°48'7 7.5 300 / 71008.9 -3.3-3.8
2018-Feb-11 17:00N 42°30' W 082°42'1110.7 050 / 61009.1 -3.0-3.6
2018-Feb-11 16:00N 42°36' W 082°30'6 6.0 020 / 71009.5 -3.9-4.4
2018-Feb-11 15:00N 42°42' W 082°30'6 6.0 350 / 51009.9 -4.8-5.2
2018-Feb-11 14:00N 42°36' W 082°30'0 0.0 010 / 81012.2 -4.8-5.1
2018-Feb-11 13:00N 42°36' W 082°30'0 0.0 030 / 81012.7 -4.6-5.8
2018-Feb-11 12:00N 42°36' W 082°30'0 0.0 050 / 51014.1 -4.8-6.0
2018-Feb-11 11:00N 42°36' W 082°30'0 0.0 040 / 51015.0 -4.9-5.8
2018-Feb-11 10:00N 42°36' W 082°30'0 0.0 060 / 61015.4 -5.4-6.0
2018-Feb-11 07:00N 42°36' W 082°30'0 0.0 040 / 71019.5 -6.1-7.2
2018-Feb-11 06:00N 42°36' W 082°30'0 0.0 050 / 31020.5 -6.2-7.2
2018-Feb-11 05:00N 42°36' W 082°30'0 0.0 040 / 51021.3 -6.3-7.5
2018-Feb-11 04:00N 42°36' W 082°30'0 0.0 050 / 21021.2 -6.2-7.6
2018-Feb-11 03:00N 42°36' W 082°30'0 0.0 040 / 11021.8 -6.3-7.9
2018-Feb-11 02:00N 42°36' W 082°30'0 0.0 050 / 31022.2 -6.1-7.8
2018-Feb-11 01:00N 42°36' W 082°30'0 0.0 050 / 31022.0 -6.2-7.9
2018-Feb-11 00:00N 42°36' W 082°30'0 0.0 040 / 21022.0 -5.7-7.6
2018-Feb-10 23:00N 42°36' W 082°30'0 0.0 050 / 31021.5 -5.7-7.6
2018-Feb-10 22:00N 42°36' W 082°30'0 0.0 020 / 21021.0 -5.3-7.2
2018-Feb-10 21:00N 42°36' W 082°30'0 0.0 030 / 21020.4 -5.5-7.2
2018-Feb-10 20:00N 42°36' W 082°30'6 6.0 010 / 21020.5 -5.6-7.1
2018-Feb-10 19:00N 42°42' W 082°30'6 6.0 010 / 111020.4 -5.7-7.2
2018-Feb-10 18:00N 42°36' W 082°30'6 6.0 020 / 91022.0 -5.0-6.3
2018-Feb-10 17:00N 42°42' W 082°30'6 6.0 020 / 71022.3 -5.3-6.5
2018-Feb-10 16:00N 42°36' W 082°30'1212.0 020 / 91022.3 -4.0-6.2
2018-Feb-10 15:00N 42°48' W 082°30'6 6.0 010 / 81022.6 -5.7-7.1
2018-Feb-10 14:00N 42°54' W 082°30'   340 / 41023.5 -5.8-7.0
Track history (hours):
 
Tides and Currents Weather Stations Pressure Air Temp Water Temp Dewpoint Dewpoint Depression Visibility Wind Speed Wind Dir Waves Ship Positions

CCGS Samuel Risley (Canada)

Medium Navaids Tender - Light Icebreaker

Last reported at 2018-Feb-20 14:00 UTC. Time now 2018-Feb-20 15:20 UTC.
Position N 42°30' W 082°42'.

Length 69.73 m; beam 13.7 m; draft 5.2 m.

Type: SAR. MMSI: 316001890.

Wind from 150 at 11 knots

Barometer 1015.9 mb
Air temperature 9.4 ° C
Dewpoint 9.5 ° C

Date/timePositionNaut miles runAvg speedWind from/ knotsBaromVisibWave heightAir tempDewpointWater temp
2018-Feb-20 14:00N 42°30' W 082°42'1110.7 150 / 111015.9 9.4 9.5
2018-Feb-20 13:00N 42°36' W 082°30'0 0.0 210 / 51016.2 10.210.3
2018-Feb-20 12:00N 42°36' W 082°30'0 0.0 210 / 61015.8 11.211.4
2018-Feb-20 11:00N 42°36' W 082°30'0 0.0 190 / 61015.2 11.411.5
2018-Feb-20 10:00N 42°36' W 082°30'0 0.0 190 / 61015.5 11.411.5
2018-Feb-20 09:00N 42°36' W 082°30'0 0.0 220 / 101015.8 11.912.0
2018-Feb-20 08:00N 42°36' W 082°30'0 0.0 220 / 101015.5 12.512.7
2018-Feb-20 07:00N 42°36' W 082°30'0 0.0 210 / 101014.7 11.411.6
2018-Feb-20 06:00N 42°36' W 082°30'0 0.0 200 / 91014.9 10.710.8
2018-Feb-20 05:00N 42°36' W 082°30'0 0.0 200 / 81015.3 10.010.1
2018-Feb-20 04:00N 42°36' W 082°30'0 0.0 210 / 81015.0 10.710.7
2018-Feb-20 03:00N 42°36' W 082°30'0 0.0 250 / 71014.6 11.111.2
2018-Feb-20 02:00N 42°36' W 082°30'0 0.0 210 / 91014.9 11.111.3
2018-Feb-20 01:00N 42°36' W 082°30'0 0.0 210 / 101014.4 10.811.0
2018-Feb-20 00:00N 42°36' W 082°30'0 0.0 210 / 111014.2 10.911.0
2018-Feb-19 23:00N 42°36' W 082°30'0 0.0 210 / 71013.8 9.0 9.1
2018-Feb-19 22:00N 42°36' W 082°30'0 0.0 210 / 91013.5 8.6 8.8
2018-Feb-19 21:00N 42°36' W 082°30'7 7.5 160 / 81013.5 5.9 5.9
2018-Feb-19 20:00N 42°30' W 082°36'4 4.4 120 / 91014.4 4.7 4.8
2018-Feb-19 19:00N 42°30' W 082°42'7 7.5 120 / 81015.9 3.6 3.6
2018-Feb-19 18:00N 42°36' W 082°36'4 4.4 160 / 71016.6 3.7 3.7
2018-Feb-19 17:00N 42°36' W 082°30'7 7.5 220 / 51017.5 3.4 3.4
2018-Feb-19 16:00N 42°30' W 082°36'4 4.4 190 / 41017.0 1.3 1.2
2018-Feb-19 15:00N 42°30' W 082°42'1110.7 170 / 81016.7 1.5 1.4
2018-Feb-19 14:00N 42°24' W 082°54'7 7.5 200 / 91017.5 1.9 1.9
2018-Feb-19 13:00N 42°18' W 083°00'0 0.0 200 / 41016.9 2.2 1.1
2018-Feb-19 12:00N 42°18' W 083°00'0 0.0 210 / 41016.0 2.0 0.5
2018-Feb-19 11:00N 42°18' W 083°00'0 0.0 180 / 41017.6 1.8-0.7
2018-Feb-19 10:00N 42°18' W 083°00'0 0.0 180 / 21018.0 1.5-1.1
2018-Feb-19 09:00N 42°18' W 083°00'0 0.0 160 / 31017.3 1.0-1.5
2018-Feb-19 08:00N 42°18' W 083°00'0 0.0 160 / 31018.3 1.0-1.7
2018-Feb-19 07:00N 42°18' W 083°00'0 0.0 190 / 51019.3 1.2-1.7
2018-Feb-19 06:00N 42°18' W 083°00'0 0.0 190 / 61019.4 1.2-1.9
2018-Feb-19 05:00N 42°18' W 083°00'0 0.0 160 / 61020.0 0.8-1.9
2018-Feb-19 04:00N 42°18' W 083°00'0 0.0 150 / 71021.7 0.9-1.9
2018-Feb-19 03:00N 42°18' W 083°00'0 0.0 120 / 51023.0 -0.0-1.7
2018-Feb-19 02:00N 42°18' W 083°00'0 0.0 130 / 61023.1 -0.4-1.9
2018-Feb-19 01:00N 42°18' W 083°00'0 0.0 130 / 51024.3 0.3-2.1
2018-Feb-19 00:00N 42°18' W 083°00'0 0.0 180 / 21025.0 0.7-2.0
2018-Feb-18 23:00N 42°18' W 083°00'0 0.0 180 / 61025.3 1.1-2.3
2018-Feb-18 22:00N 42°18' W 083°00'7 7.5 200 / 81026.2 1.3-2.7
2018-Feb-18 21:00N 42°24' W 082°54'1110.7 180 / 181026.8 0.3-3.1
2018-Feb-18 20:00N 42°30' W 082°42'4 4.4 190 / 161026.9 -0.8-3.3
2018-Feb-18 19:00N 42°30' W 082°36'7 7.5 200 / 121026.9 0.6-3.8
2018-Feb-18 18:00N 42°36' W 082°30'7 7.5 190 / 101027.3 1.1-4.3
2018-Feb-18 17:00N 42°30' W 082°36'9 8.8 180 / 71027.5 -1.0-3.7
2018-Feb-18 16:00N 42°30' W 082°48'9 8.8 160 / 101028.3 -1.7-4.6
2018-Feb-18 15:00N 42°30' W 082°36'1110.7 250 / 61028.2 -0.6-5.1
2018-Feb-18 14:00N 42°24' W 082°48'1110.7 270 / 51027.3 -0.4-5.0
2018-Feb-18 13:00N 42°18' W 083°00'0 0.0 280 / 41026.4 1.0-4.4
2018-Feb-18 12:00N 42°18' W 083°00'0 0.0 300 / 51026.2 0.4-4.5
2018-Feb-18 11:00N 42°18' W 083°00'0 0.0 260 / 61025.4 1.0-3.0
2018-Feb-18 10:00N 42°18' W 083°00'0 0.0 280 / 71023.6 0.1-3.0
2018-Feb-18 09:00N 42°18' W 083°00'0 0.0 260 / 61021.8 0.5-1.7
2018-Feb-18 08:00N 42°18' W 083°00'0 0.0 250 / 91020.6 0.4-1.2
2018-Feb-18 07:00N 42°18' W 083°00'0 0.0 250 / 81019.6 -0.2-1.3
2018-Feb-18 06:00N 42°18' W 083°00'0 0.0 250 / 61018.2 1.3-1.1
2018-Feb-18 05:00N 42°18' W 083°00'0 0.0 260 / 51017.2 0.6-1.1
2018-Feb-18 04:00N 42°18' W 083°00'0 0.0 260 / 71017.2 0.7-0.3
2018-Feb-18 03:00N 42°18' W 083°00'0 0.0 240 / 61016.4 1.0-1.3
2018-Feb-18 02:00N 42°18' W 083°00'0 0.0 220 / 51015.9 -0.1-1.9
2018-Feb-18 01:00N 42°18' W 083°00'0 0.0 210 / 61016.3 -0.1-2.2
2018-Feb-18 00:00N 42°18' W 083°00'1110.7 170 / 81016.1 -0.6-3.1
2018-Feb-17 23:00N 42°24' W 082°48'7 7.5 180 / 121016.8 -0.8-3.2
2018-Feb-17 22:00N 42°30' W 082°42'1110.7 190 / 71016.2 -1.1-3.3
2018-Feb-17 21:00N 42°36' W 082°30'1212.0 200 / 101016.3 -0.9-4.9
2018-Feb-17 20:00N 42°48' W 082°30'6 6.0 180 / 121016.0 -0.8-5.1
2018-Feb-17 19:00N 42°54' W 082°30'7 7.4 190 / 151018.0 -1.0-5.8
2018-Feb-17 18:00N 43°00' W 082°24'6 6.0 200 / 141019.0 -0.4-6.1
2018-Feb-17 17:00N 42°54' W 082°24'0 0.0 210 / 11020.2 -1.0-6.8
2018-Feb-17 16:00N 42°54' W 082°24'0 0.0 190 / 11021.6 -1.4-6.9
2018-Feb-17 15:00N 42°54' W 082°24'0 0.0 170 / 61022.8 -1.9-6.8
2018-Feb-17 14:00N 42°54' W 082°24'0 0.0 170 / 31023.7 -2.5-6.3
2018-Feb-17 13:00N 42°54' W 082°24'0 0.0 160 / 31023.8 -3.6-6.3
2018-Feb-17 12:00N 42°54' W 082°24'0 0.0 160 / 31024.0 -4.5-6.8
2018-Feb-17 11:00N 42°54' W 082°24'0 0.0 170 / 21024.7 -4.6-6.8
2018-Feb-17 10:00N 42°54' W 082°24'0 0.0 160 / 21024.9 -4.1-7.4
2018-Feb-17 09:00N 42°54' W 082°24'0 0.0 210 / 11025.0 -4.7-8.6
2018-Feb-17 08:00N 42°54' W 082°24'0 0.0 210 / 11025.2 -4.8-9.2
2018-Feb-17 07:00N 42°54' W 082°24'0 0.0 220 / 31025.9 -4.5-9.1
2018-Feb-17 06:00N 42°54' W 082°24'0 0.0 210 / 31025.3 -3.5-8.6
2018-Feb-17 05:00N 42°54' W 082°24'0 0.0 210 / 21025.4 -3.1-9.5
2018-Feb-17 04:00N 42°54' W 082°24'0 0.0 210 / 21025.7 -3.1-9.8
2018-Feb-17 03:00N 42°54' W 082°24'0 0.0 210 / 21025.3 -2.9-9.7
2018-Feb-17 02:00N 42°54' W 082°24'0 0.0 210 / 21025.3 -2.5-9.0
2018-Feb-17 01:00N 42°54' W 082°24'0 0.0 260 / 21025.3 -1.8-8.7
2018-Feb-17 00:00N 42°54' W 082°24'0 0.0 260 / 41024.7 -1.4-8.9
2018-Feb-16 23:00N 42°54' W 082°24'0 0.0 300 / 61023.8 -1.0-8.9
2018-Feb-16 22:00N 42°54' W 082°24'0 0.0 330 / 51023.2 -1.0-9.1
2018-Feb-16 21:00N 42°54' W 082°24'0 0.0 300 / 111022.5 -1.5-9.2
2018-Feb-16 20:00N 42°54' W 082°24'0 0.0 320 / 71021.6 -2.2-8.2
2018-Feb-16 19:00N 42°54' W 082°24'0 0.0 350 / 71020.4 -1.9-7.2
2018-Feb-16 18:00N 42°54' W 082°24'0 0.0 340 / 61019.7 -1.9-5.3
2018-Feb-16 17:00N 42°54' W 082°24'0 0.0 340 / 91019.0 -1.4-7.1
2018-Feb-16 16:00N 42°54' W 082°24'0 0.0 320 / 131017.7 -1.6-6.4
2018-Feb-16 15:00N 42°54' W 082°24'0 0.0 320 / 91016.5 -1.7-4.4
2018-Feb-16 14:00N 42°54' W 082°24'0 0.0 330 / 101015.5 -1.6-4.2
2018-Feb-16 13:00N 42°54' W 082°24'0 0.0 330 / 101014.0 -1.1-3.2
2018-Feb-16 12:00N 42°54' W 082°24'0 0.0 340 / 81012.3 -0.9-2.6
2018-Feb-16 11:00N 42°54' W 082°24'0 0.0 350 / 71011.7 -0.7-2.2
2018-Feb-16 10:00N 42°54' W 082°24'0 0.0 020 / 41010.7 -0.3-1.9
2018-Feb-16 09:00N 42°54' W 082°24'0 0.0 020 / 41009.7 0.1-0.7
2018-Feb-16 08:00N 42°54' W 082°24'0 0.0 360 / 41008.9 0.6 0.4
2018-Feb-16 07:00N 42°54' W 082°24'0 0.0 010 / 21008.3 0.9 0.8
2018-Feb-16 06:00N 42°54' W 082°24'0 0.0 020 / 31008.0 1.3 0.9
2018-Feb-16 05:00N 42°54' W 082°24'0 0.0 350 / 41007.7 1.9 0.7
2018-Feb-16 04:00N 42°54' W 082°24'0 0.0 010 / 41007.8 2.7 0.9
2018-Feb-16 03:00N 42°54' W 082°24'0 0.0 340 / 91006.2 5.8 4.1
2018-Feb-16 02:00N 42°54' W 082°24'0 0.0 300 / 61006.1 6.2 6.2
2018-Feb-16 01:00N 42°54' W 082°24'0 0.0 270 / 21005.4 6.2 6.3
2018-Feb-16 00:00N 42°54' W 082°24'4 4.4 320 / 11004.8 6.2 6.3
2018-Feb-15 23:00N 42°54' W 082°30'1212.0 280 / 41004.6 7.0 7.0
2018-Feb-15 22:00N 42°42' W 082°30'7 7.4 190 / 8 5.9 6.0
2018-Feb-15 21:00N 42°36' W 082°36'7 7.5 200 / 51005.1 5.5 5.5
2018-Feb-15 20:00N 42°30' W 082°42'1110.7 200 / 81005.5 3.9 4.0
2018-Feb-15 19:00N 42°24' W 082°54'7 7.5 230 / 101006.4 7.9 8.0
2018-Feb-15 18:00N 42°18' W 083°00'1110.7 240 / 121007.9 7.8 7.9
2018-Feb-15 17:00N 42°24' W 082°48'1110.7 190 / 91007.3 3.7 3.7
2018-Feb-15 16:00N 42°30' W 082°36'1312.8 210 / 8987.5 3.6 3.6
2018-Feb-15 15:00N 42°42' W 082°30'6 6.0 220 / 11 6.7 6.6
2018-Feb-15 14:00N 42°48' W 082°30'1212.0 220 / 8 5.9 6.0
2018-Feb-15 13:00N 42°36' W 082°30'6 6.0 220 / 121008.1 4.6 4.7
2018-Feb-15 12:00N 42°42' W 082°30'6 6.0 210 / 91008.3 5.9 6.0
2018-Feb-15 11:00N 42°36' W 082°30'0 0.0 220 / 111008.4 5.3 5.3
2018-Feb-15 10:00N 42°36' W 082°30'0 0.0 210 / 91008.8 4.1 4.1
2018-Feb-15 09:00N 42°36' W 082°30'0 0.0 230 / 91009.4 3.8 3.8
2018-Feb-15 08:00N 42°36' W 082°30'0 0.0 230 / 81009.8 3.7 3.7
2018-Feb-15 07:00N 42°36' W 082°30'0 0.0 210 / 81010.2 3.4 3.4
2018-Feb-15 06:00N 42°36' W 082°30'0 0.0 210 / 81011.6 3.0 3.0
2018-Feb-15 05:00N 42°36' W 082°30'0 0.0 200 / 71011.7 3.4 3.4
2018-Feb-15 04:00N 42°36' W 082°30'0 0.0 190 / 71012.6 3.5 3.5
2018-Feb-15 03:00N 42°36' W 082°30'0 0.0 200 / 71013.5 3.4 3.3
2018-Feb-15 02:00N 42°36' W 082°30'0 0.0 210 / 81014.3 2.8 2.7
2018-Feb-15 01:00N 42°36' W 082°30'7 7.5 190 / 91015.2 2.7 1.8
2018-Feb-15 00:00N 42°30' W 082°36'0 0.0 190 / 101015.8 1.8 0.6
2018-Feb-14 23:00N 42°30' W 082°36'1110.7 200 / 131016.2 1.9 0.3
2018-Feb-14 22:00N 42°24' W 082°48'0 0.0 200 / 151016.6 3.6 0.7
2018-Feb-14 21:00N 42°24' W 082°48'7 7.5 180 / 151017.3 2.5 0.1
2018-Feb-14 20:00N 42°30' W 082°42'1110.7 170 / 161017.8 2.2 0.2
2018-Feb-14 19:00N 42°36' W 082°30'0 0.0 220 / 141019.3 4.6 0.6
2018-Feb-14 18:00N 42°36' W 082°30'0 0.0 210 / 111020.7 3.0-0.4
2018-Feb-14 17:00N 42°36' W 082°30'0 0.0 210 / 141021.5 2.8-0.4
2018-Feb-14 16:00N 42°36' W 082°30'0 0.0 220 / 131022.4 0.4-1.3
2018-Feb-14 15:00N 42°36' W 082°30'0 0.0 210 / 141022.7 -0.4-2.1
2018-Feb-14 14:00N 42°36' W 082°30'0 0.0 210 / 91023.0 -3.2-4.2
2018-Feb-14 13:00N 42°36' W 082°30'0 0.0 220 / 71023.0 -3.5-4.4
2018-Feb-14 12:00N 42°36' W 082°30'0 0.0 220 / 81023.1 -3.5-4.3
2018-Feb-14 11:00N 42°36' W 082°30'0 0.0 220 / 101023.0 -3.9-4.5
2018-Feb-14 10:00N 42°36' W 082°30'0 0.0 200 / 71023.2 -5.4-5.9
2018-Feb-14 09:00N 42°36' W 082°30'0 0.0 220 / 61023.8 -5.5-6.1
2018-Feb-14 08:00N 42°36' W 082°30'0 0.0 200 / 71024.2 -5.1-6.0
2018-Feb-14 07:00N 42°36' W 082°30'0 0.0 190 / 61024.9 -4.8-6.0
2018-Feb-14 06:00N 42°36' W 082°30'0 0.0 180 / 41025.9 -5.7-6.7
2018-Feb-14 05:00N 42°36' W 082°30'0 0.0 210 / 41026.3 -5.2-6.6
2018-Feb-14 04:00N 42°36' W 082°30'0 0.0 180 / 51027.6 -4.5-7.0
2018-Feb-14 03:00N 42°36' W 082°30'0 0.0 1028.9 -4.8-7.7
2018-Feb-14 02:00N 42°36' W 082°30'0 0.0 160 / 11029.5 -4.7-7.8
2018-Feb-14 01:00N 42°36' W 082°30'0 0.0 130 / 31030.2 -5.1-8.3
2018-Feb-14 00:00N 42°36' W 082°30'0 0.0 120 / 41031.5 -5.1-8.6
2018-Feb-13 23:00N 42°36' W 082°30'0 0.0 140 / 61032.7 -5.0-9.1
2018-Feb-13 22:00N 42°36' W 082°30'0 0.0 100 / 51033.8 -4.9-9.6
2018-Feb-13 21:00N 42°36' W 082°30'0 0.0 100 / 71034.5 -4.9-10.4
2018-Feb-13 20:00N 42°36' W 082°30'0 0.0 090 / 61035.1 -5.0-11.5
2018-Feb-13 19:00N 42°36' W 082°30'1110.7 120 / 51036.3 -5.1-11.4
2018-Feb-13 18:00N 42°30' W 082°42'7 7.5 140 / 51038.9 -6.8-10.0
2018-Feb-13 17:00N 42°24' W 082°48'0 0.0 010 / 41041.0 -9.0-11.5
2018-Feb-13 16:00N 42°24' W 082°48'1110.7 070 / 21041.6 -10.6-13.0
2018-Feb-13 15:00N 42°30' W 082°36'1312.8 100 / 101042.4 -7.8-12.3
2018-Feb-13 14:00N 42°42' W 082°30'6 6.0 150 / 21043.3 -12.6-15.3
2018-Feb-13 13:00N 42°36' W 082°30'0 0.0 090 / 11043.5 -12.4-15.1
2018-Feb-13 12:00N 42°36' W 082°30'0 0.0 100 / 21043.4 -13.0-15.5
2018-Feb-13 11:00N 42°36' W 082°30'0 0.0 040 / 31043.3 -13.6-15.4
2018-Feb-13 10:00N 42°36' W 082°30'0 0.0 070 / 21043.6 -13.1-15.3
2018-Feb-13 09:00N 42°36' W 082°30'0 0.0 090 / 31043.8 -12.6-15.1
2018-Feb-13 08:00N 42°36' W 082°30'0 0.0 090 / 31044.5 -11.8-14.3
2018-Feb-13 07:00N 42°36' W 082°30'0 0.0 100 / 21044.1 -11.4-14.3
2018-Feb-13 06:00N 42°36' W 082°30'0 0.0 070 / 21043.9 -11.1-13.9
2018-Feb-13 05:00N 42°36' W 082°30'0 0.0 080 / 41044.2 -10.1-13.7
2018-Feb-13 04:00N 42°36' W 082°30'0 0.0 090 / 31044.3 -9.8-13.5
2018-Feb-13 03:00N 42°36' W 082°30'0 0.0 100 / 21043.7 -9.4-13.1
2018-Feb-13 02:00N 42°36' W 082°30'4 4.4 090 / 31042.7 -8.8-12.9
2018-Feb-13 01:00N 42°36' W 082°36'7 7.5 070 / 51042.5 -7.7-12.5
2018-Feb-13 00:00N 42°30' W 082°42'1514.9 100 / 61042.3 -7.6-12.3
2018-Feb-12 23:00N 42°42' W 082°30'6 6.0 110 / 21041.2 -6.3-12.2
2018-Feb-12 22:00N 42°36' W 082°30'0 0.0 100 / 71040.5 -5.4-12.0
2018-Feb-12 21:00N 42°36' W 082°30'0 0.0 110 / 71039.8 -5.3-11.7
2018-Feb-12 19:00N 42°36' W 082°30'6 6.0 040 / 21039.0 -4.9-11.6
2018-Feb-12 18:00N 42°42' W 082°30'1212.0 050 / 2 -5.5-12.0
2018-Feb-12 17:00N 42°54' W 082°30'7 7.4 020 / 51038.7 -6.1-12.4
2018-Feb-12 16:00N 43°00' W 082°24'6 6.0 350 / 91038.1 -6.7-12.5
2018-Feb-12 15:00N 43°06' W 082°24'1312.8 310 / 61036.8 -9.3-12.3
2018-Feb-12 14:00N 43°18' W 082°18'1212.0 300 / 91035.7 -10.9-13.1
2018-Feb-12 13:00N 43°30' W 082°18'4 4.4 290 / 101033.9 -11.1-13.2
2018-Feb-12 12:00N 43°30' W 082°12'0 0.0 290 / 101032.2 -10.8-13.1
2018-Feb-12 11:00N 43°30' W 082°12'0 0.0 290 / 131030.5 -9.8-12.5
2018-Feb-12 10:00N 43°30' W 082°12'0 0.0 280 / 131028.8 -9.5-11.9
2018-Feb-12 09:00N 43°30' W 082°12'0 0.0 270 / 131027.5 -8.8-11.5
2018-Feb-12 08:00N 43°30' W 082°12'0 0.0 250 / 81026.8 -8.8-11.4
2018-Feb-12 07:00N 43°30' W 082°12'0 0.0 230 / 91025.4 -8.1-11.2
2018-Feb-12 06:00N 43°30' W 082°12'6 6.0 260 / 121024.1 -7.8-10.4
2018-Feb-12 05:00N 43°36' W 082°12'1414.3 270 / 91022.3 -7.5-9.8
2018-Feb-12 04:00N 43°42' W 081°54'0 0.0 240 / 111020.7 -6.9-8.5
2018-Feb-12 03:00N 43°42' W 081°54'1312.8 220 / 101019.6 -6.2-7.2
2018-Feb-12 02:00N 43°30' W 082°00'1110.6 210 / 121018.4 -5.4-6.4
2018-Feb-12 01:00N 43°24' W 082°12'1312.8 220 / 111017.1 -4.3-5.5
2018-Feb-12 00:00N 43°12' W 082°18'2010.0 210 / 111016.0 -3.7-5.2
2018-Feb-11 22:00N 42°54' W 082°30'24 8.1 270 / 81012.0 -3.7-5.1
2018-Feb-11 19:00N 42°30' W 082°36'1110.7 270 / 81008.7 -3.3-3.8
2018-Feb-11 18:00N 42°24' W 082°48'7 7.5 300 / 71008.9 -3.3-3.8
2018-Feb-11 17:00N 42°30' W 082°42'1110.7 050 / 61009.1 -3.0-3.6
2018-Feb-11 16:00N 42°36' W 082°30'6 6.0 020 / 71009.5 -3.9-4.4
2018-Feb-11 15:00N 42°42' W 082°30'6 6.0 350 / 51009.9 -4.8-5.2
2018-Feb-11 14:00N 42°36' W 082°30'0 0.0 010 / 81012.2 -4.8-5.1
2018-Feb-11 13:00N 42°36' W 082°30'0 0.0 030 / 81012.7 -4.6-5.8
2018-Feb-11 12:00N 42°36' W 082°30'0 0.0 050 / 51014.1 -4.8-6.0
2018-Feb-11 11:00N 42°36' W 082°30'0 0.0 040 / 51015.0 -4.9-5.8
2018-Feb-11 10:00N 42°36' W 082°30'0 0.0 060 / 61015.4 -5.4-6.0
2018-Feb-11 07:00N 42°36' W 082°30'0 0.0 040 / 71019.5 -6.1-7.2
2018-Feb-11 06:00N 42°36' W 082°30'0 0.0 050 / 31020.5 -6.2-7.2
2018-Feb-11 05:00N 42°36' W 082°30'0 0.0 040 / 51021.3 -6.3-7.5
2018-Feb-11 04:00N 42°36' W 082°30'0 0.0 050 / 21021.2 -6.2-7.6
2018-Feb-11 03:00N 42°36' W 082°30'0 0.0 040 / 11021.8 -6.3-7.9
2018-Feb-11 02:00N 42°36' W 082°30'0 0.0 050 / 31022.2 -6.1-7.8
2018-Feb-11 01:00N 42°36' W 082°30'0 0.0 050 / 31022.0 -6.2-7.9
2018-Feb-11 00:00N 42°36' W 082°30'0 0.0 040 / 21022.0 -5.7-7.6
2018-Feb-10 23:00N 42°36' W 082°30'0 0.0 050 / 31021.5 -5.7-7.6
2018-Feb-10 22:00N 42°36' W 082°30'0 0.0 020 / 21021.0 -5.3-7.2
2018-Feb-10 21:00N 42°36' W 082°30'0 0.0 030 / 21020.4 -5.5-7.2
2018-Feb-10 20:00N 42°36' W 082°30'6 6.0 010 / 21020.5 -5.6-7.1
2018-Feb-10 19:00N 42°42' W 082°30'6 6.0 010 / 111020.4 -5.7-7.2
2018-Feb-10 18:00N 42°36' W 082°30'6 6.0 020 / 91022.0 -5.0-6.3
2018-Feb-10 17:00N 42°42' W 082°30'6 6.0 020 / 71022.3 -5.3-6.5
2018-Feb-10 16:00N 42°36' W 082°30'1212.0 020 / 91022.3 -4.0-6.2
2018-Feb-10 15:00N 42°48' W 082°30'6 6.0 010 / 81022.6 -5.7-7.1
2018-Feb-10 14:00N 42°54' W 082°30'   340 / 41023.5 -5.8-7.0

Dump ship's entire track history